Time;durP1;ratioP1;P1;durP2;ratioP2;P2;SDS_P1;SDS_P2;PMS_P1;PMS_P2;Temp;Humidity;BMP_temperature;BMP_pressure;BME280_temperature;BME280_humidity;BME280_pressure;Samples;Min_cycle;Max_cycle;Signal;HPM_P1;HPM_P2
2022/01/10 00:01:46;;;;;;;89.20;54.70;;;;;;;-0.42;87.73;98181.30;103694;1271;1003513;-71
2022/01/10 00:04:13;;;;;;;91.10;56.80;;;;;;;-0.41;87.73;98182.50;105184;1271;61320;-69
2022/01/10 00:06:40;;;;;;;89.80;55.10;;;;;;;-0.39;87.81;98189.73;104864;1271;61375;-72
2022/01/10 00:09:06;;;;;;;92.20;53.00;;;;;;;-0.35;87.78;98191.86;104881;1270;61373;-72
2022/01/10 00:11:33;;;;;;;90.60;53.20;;;;;;;-0.33;87.69;98196.13;105000;1271;61369;-72
2022/01/10 00:13:59;;;;;;;95.80;55.60;;;;;;;-0.32;87.69;98201.17;105123;1271;61325;-72
2022/01/10 00:16:26;;;;;;;97.40;56.00;;;;;;;-0.31;87.64;98197.64;105208;1271;61826;-73
2022/01/10 00:18:53;;;;;;;89.20;54.70;;;;;;;-0.32;87.58;98205.00;105227;1271;61288;-74
2022/01/10 00:21:19;;;;;;;94.60;55.10;;;;;;;-0.31;87.60;98206.56;105213;1271;61262;-72
2022/01/10 00:23:46;;;;;;;93.10;54.10;;;;;;;-0.31;87.64;98210.39;105201;1271;61357;-71
2022/01/10 00:26:12;;;;;;;82.90;50.90;;;;;;;-0.31;87.59;98214.39;105106;1271;61332;-73
2022/01/10 00:28:39;;;;;;;92.90;53.80;;;;;;;-0.31;87.71;98215.12;105196;1271;61374;-73
2022/01/10 00:31:05;;;;;;;89.90;54.80;;;;;;;-0.32;87.75;98216.86;105005;1271;61294;-72
2022/01/10 00:33:32;;;;;;;91.60;53.90;;;;;;;-0.31;87.82;98218.25;105213;1271;61282;-73
2022/01/10 00:35:59;;;;;;;91.40;53.10;;;;;;;-0.29;87.99;98216.96;105223;1271;69537;-72
2022/01/10 00:38:25;;;;;;;89.80;55.30;;;;;;;-0.29;88.09;98224.98;105217;1271;73559;-71
2022/01/10 00:40:52;;;;;;;91.30;55.40;;;;;;;-0.29;88.16;98228.11;105196;1271;61304;-73
2022/01/10 00:43:30;;;;;;;91.70;55.60;;;;;;;-0.28;88.13;98227.39;105235;1271;61587;-71
2022/01/10 00:45:57;;;;;;;96.60;55.60;;;;;;;-0.27;88.06;98234.67;105140;1271;75224;-72
2022/01/10 00:48:24;;;;;;;89.40;52.60;;;;;;;-0.26;87.90;98239.36;105208;1271;69340;-71
2022/01/10 00:50:50;;;;;;;96.20;55.40;;;;;;;-0.27;87.78;98244.10;105162;1271;74480;-72
2022/01/10 00:53:17;;;;;;;93.80;54.70;;;;;;;-0.29;87.66;98241.55;105219;1271;61388;-72
2022/01/10 00:55:44;;;;;;;89.50;55.20;;;;;;;-0.31;87.60;98241.98;104987;1271;61387;-73
2022/01/10 00:58:11;;;;;;;96.60;55.50;;;;;;;-0.34;87.42;98251.52;104974;1271;76399;-71
2022/01/10 01:00:37;;;;;;;93.30;54.00;;;;;;;-0.38;87.50;98255.50;105220;1271;69371;-73
2022/01/10 01:03:04;;;;;;;93.80;55.40;;;;;;;-0.41;87.53;98262.57;105195;1271;73309;-74
2022/01/10 01:05:34;;;;;;;87.40;54.60;;;;;;;-0.42;87.55;98260.35;105252;1271;61272;-73
2022/01/10 01:08:06;;;;;;;100.20;60.40;;;;;;;-0.44;87.65;98262.16;105235;1271;61269;-72
2022/01/10 01:13:06;;;;;;;92.10;56.20;;;;;;;-0.47;87.58;98263.13;105306;1271;69920;-72
2022/01/10 01:15:44;;;;;;;101.80;58.10;;;;;;;-0.49;87.61;98257.44;105161;1271;73407;-74
2022/01/10 01:18:19;;;;;;;101.00;60.40;;;;;;;-0.50;87.65;98261.81;105204;1271;61306;-74
2022/01/10 01:24:01;;;;;;;95.90;59.70;;;;;;;-0.51;87.72;98265.15;105212;1271;61360;-73
2022/01/10 01:26:18;;;;;;;101.00;60.80;;;;;;;-0.49;87.75;98264.59;105159;1271;69970;-71
2022/01/10 01:28:44;;;;;;;105.10;62.70;;;;;;;-0.51;87.85;98269.36;105135;1271;72619;-72
2022/01/10 01:31:11;;;;;;;94.00;60.70;;;;;;;-0.54;87.72;98269.27;105216;1271;61326;-71
2022/01/10 01:33:39;;;;;;;106.60;61.60;;;;;;;-0.56;87.68;98267.98;105183;1271;61134;-71
2022/01/10 01:36:06;;;;;;;105.50;61.50;;;;;;;-0.60;87.63;98270.56;105158;1271;75267;-72
2022/01/10 01:38:33;;;;;;;104.70;62.20;;;;;;;-0.63;87.83;98270.65;105312;1271;69601;-71
2022/01/10 01:43:49;;;;;;;99.30;59.40;;;;;;;-0.69;87.82;98277.45;105142;1271;61404;-71
2022/01/10 01:46:16;;;;;;;100.50;60.50;;;;;;;-0.72;87.85;98277.03;105514;1271;61349;-74
2022/01/10 01:48:44;;;;;;;98.50;59.70;;;;;;;-0.72;87.89;98283.14;105196;1271;76509;-73
2022/01/10 01:51:11;;;;;;;98.40;57.90;;;;;;;-0.71;87.98;98282.42;105194;1271;70245;-72
2022/01/10 01:53:38;;;;;;;93.00;59.30;;;;;;;-0.72;87.87;98288.71;104259;1274;1003555;-72
2022/01/10 01:56:06;;;;;;;93.80;58.80;;;;;;;-0.73;87.96;98288.40;105180;1271;61401;-73
2022/01/10 01:58:35;;;;;;;92.60;56.60;;;;;;;-0.72;88.06;98289.92;105248;1271;61294;-72
2022/01/10 02:01:06;;;;;;;93.60;57.40;;;;;;;-0.71;88.02;98296.02;105229;1271;75426;-72
2022/01/10 02:03:34;;;;;;;88.20;52.00;;;;;;;-0.71;87.86;98294.27;105052;1271;69271;-72
2022/01/10 02:06:01;;;;;;;90.20;52.20;;;;;;;-0.74;87.81;98295.42;105175;1271;73356;-72
2022/01/10 02:08:27;;;;;;;83.10;50.60;;;;;;;-0.76;87.69;98295.85;105195;1271;61301;-72
2022/01/10 02:10:54;;;;;;;83.80;49.60;;;;;;;-0.79;87.68;98300.32;105109;1271;61242;-73
2022/01/10 02:13:21;;;;;;;85.40;51.10;;;;;;;-0.81;87.80;98300.03;105061;1271;75375;-72
2022/01/10 02:18:19;;;;;;;90.20;51.30;;;;;;;-0.84;87.70;98309.18;105251;1270;72439;-71
2022/01/10 02:20:47;;;;;;;79.20;49.50;;;;;;;-0.85;87.58;98312.69;105144;1271;61586;-73
2022/01/10 02:23:15;;;;;;;83.50;52.00;;;;;;;-0.87;87.58;98314.86;105173;1271;61550;-72
2022/01/10 02:25:43;;;;;;;87.20;51.60;;;;;;;-0.90;87.62;98323.48;105553;1271;75330;-71
2022/01/10 02:28:10;;;;;;;86.30;51.60;;;;;;;-0.92;87.54;98326.16;104960;1271;70630;-73
2022/01/10 02:30:38;;;;;;;81.60;49.20;;;;;;;-0.94;87.60;98325.38;104960;1271;72281;-73
2022/01/10 02:33:05;;;;;;;93.70;53.70;;;;;;;-0.96;87.58;98324.73;104845;1274;61278;-72
2022/01/10 02:38:26;;;;;;;86.90;49.70;;;;;;;-0.98;87.75;98328.80;104835;1271;75513;-71
2022/01/10 02:40:53;;;;;;;79.00;48.80;;;;;;;-0.97;87.69;98329.30;104828;1271;70109;-73
2022/01/10 02:43:20;;;;;;;84.10;51.40;;;;;;;-0.98;87.79;98336.63;105237;1271;73734;-72
2022/01/10 02:45:47;;;;;;;90.00;53.60;;;;;;;-0.98;87.85;98335.77;105093;1270;61301;-73
2022/01/10 02:48:13;;;;;;;82.00;50.50;;;;;;;-0.97;87.75;98340.45;104614;1271;1003352;-72
2022/01/10 02:50:40;;;;;;;87.10;53.80;;;;;;;-0.99;87.67;98343.15;105187;1271;75273;-72
2022/01/10 02:53:07;;;;;;;86.70;52.70;;;;;;;-1.01;87.71;98347.02;105215;1271;68137;-72
2022/01/10 02:55:34;;;;;;;85.70;53.60;;;;;;;-1.01;87.73;98347.39;105220;1271;73337;-72
2022/01/10 02:58:00;;;;;;;94.00;54.30;;;;;;;-1.04;87.65;98349.39;105221;1271;61272;-71
2022/01/10 03:00:28;;;;;;;90.90;55.50;;;;;;;-1.07;87.62;98353.48;105233;1271;61713;-74
2022/01/10 03:02:55;;;;;;;90.90;54.20;;;;;;;-1.11;87.70;98349.93;105200;1271;74920;-72
2022/01/10 03:05:24;;;;;;;93.60;55.70;;;;;;;-1.13;87.84;98351.74;105226;1271;69600;-72
2022/01/10 03:07:53;;;;;;;91.40;55.60;;;;;;;-1.16;87.79;98355.48;105280;1271;73144;-73
2022/01/10 03:10:20;;;;;;;95.10;57.50;;;;;;;-1.18;87.79;98361.15;105025;1271;61279;-71
2022/01/10 03:12:48;;;;;;;95.20;57.40;;;;;;;-1.23;87.60;98363.04;105151;1271;62319;-72
2022/01/10 03:15:17;;;;;;;95.00;57.80;;;;;;;-1.31;87.46;98368.66;105207;1271;74342;-72
2022/01/10 03:17:44;;;;;;;98.40;57.60;;;;;;;-1.39;87.65;98371.33;105250;1271;69210;-70
2022/01/10 03:20:11;;;;;;;96.40;56.50;;;;;;;-1.45;87.72;98368.20;105212;1271;74783;-71
2022/01/10 03:22:38;;;;;;;97.90;59.10;;;;;;;-1.49;87.79;98368.85;105191;1271;61314;-72
2022/01/10 03:25:05;;;;;;;96.20;56.30;;;;;;;-1.54;87.79;98370.04;104977;1271;61386;-70
2022/01/10 03:27:32;;;;;;;96.00;58.40;;;;;;;-1.64;87.61;98374.11;105513;1271;75211;-71
2022/01/10 03:29:59;;;;;;;103.70;58.70;;;;;;;-1.71;87.82;98378.66;105340;1271;69715;-72
2022/01/10 03:32:25;;;;;;;99.90;61.30;;;;;;;-1.76;87.98;98383.16;104283;1271;1002954;-72
2022/01/10 03:34:52;;;;;;;103.30;60.20;;;;;;;-1.80;88.02;98388.85;105223;1271;61416;-73
2022/01/10 03:37:18;;;;;;;100.90;61.70;;;;;;;-1.83;88.14;98390.31;105180;1271;61277;-73
2022/01/10 03:39:45;;;;;;;100.10;59.90;;;;;;;-1.87;88.27;98391.30;105061;1271;75174;-70
2022/01/10 03:42:12;;;;;;;100.30;62.90;;;;;;;-1.89;88.33;98395.20;105134;1271;69823;-72
2022/01/10 03:44:39;;;;;;;107.00;61.80;;;;;;;-1.89;88.53;98400.41;104958;1271;73512;-71
2022/01/10 03:47:06;;;;;;;101.90;63.70;;;;;;;-1.90;88.51;98403.75;105185;1271;61384;-71
2022/01/10 03:49:32;;;;;;;100.80;61.50;;;;;;;-1.92;88.52;98408.84;104818;1274;61198;-69
2022/01/10 03:51:59;;;;;;;100.90;62.10;;;;;;;-1.95;88.46;98412.73;104815;1271;76215;-71
2022/01/10 03:54:25;;;;;;;97.40;59.70;;;;;;;-1.97;88.57;98418.20;105105;1271;61384;-71
2022/01/10 03:56:52;;;;;;;98.30;59.80;;;;;;;-2.00;88.51;98423.67;105171;1271;61295;-73
2022/01/10 03:59:20;;;;;;;102.80;61.80;;;;;;;-2.02;88.67;98430.67;105182;1271;61257;-72
2022/01/10 04:01:47;;;;;;;94.60;60.50;;;;;;;-2.02;88.73;98434.69;105200;1271;61186;-71
2022/01/10 04:04:14;;;;;;;102.90;61.80;;;;;;;-2.03;88.73;98434.55;105125;1271;76198;-71
2022/01/10 04:06:41;;;;;;;107.30;63.70;;;;;;;-2.06;88.77;98433.73;105321;1271;70179;-72
2022/01/10 04:09:08;;;;;;;107.30;62.60;;;;;;;-2.06;88.85;98436.88;105191;1271;73492;-71
2022/01/10 04:11:35;;;;;;;104.70;62.40;;;;;;;-2.08;88.87;98438.33;105197;1271;61269;-70
2022/01/10 04:14:02;;;;;;;97.30;59.60;;;;;;;-2.13;88.74;98439.32;105187;1271;61469;-71
2022/01/10 04:16:29;;;;;;;103.20;61.80;;;;;;;-2.19;88.76;98441.21;105263;1271;75443;-70
2022/01/10 04:18:55;;;;;;;96.90;59.60;;;;;;;-2.27;88.81;98444.02;104710;1271;70083;-72
2022/01/10 04:21:22;;;;;;;104.60;60.80;;;;;;;-2.38;88.84;98444.96;105172;1271;74387;-72
2022/01/10 04:23:49;;;;;;;106.90;61.40;;;;;;;-2.48;88.97;98449.19;104903;1271;61255;-71
2022/01/10 04:26:15;;;;;;;105.80;62.40;;;;;;;-2.54;89.20;98450.20;104874;1271;61285;-71
2022/01/10 04:28:42;;;;;;;104.10;63.00;;;;;;;-2.59;89.23;98456.24;104871;1271;61270;-71
2022/01/10 04:31:10;;;;;;;100.30;61.50;;;;;;;-2.67;89.24;98457.29;105056;1271;70386;-70
2022/01/10 04:33:38;;;;;;;103.80;60.30;;;;;;;-2.75;89.32;98465.80;104920;1271;74403;-71
2022/01/10 04:36:05;;;;;;;103.30;60.60;;;;;;;-2.81;89.43;98466.81;105211;1271;61299;-73
2022/01/10 04:38:31;;;;;;;106.60;63.70;;;;;;;-2.87;89.63;98469.17;104832;1271;61378;-74
2022/01/10 04:40:58;;;;;;;103.20;61.40;;;;;;;-2.92;89.77;98475.20;104872;1271;74124;-73
2022/01/10 04:43:24;;;;;;;100.40;63.00;;;;;;;-2.97;89.78;98476.02;105123;1271;69628;-73
2022/01/10 04:45:51;;;;;;;104.50;61.70;;;;;;;-3.03;89.98;98483.95;105073;1271;73287;-71
2022/01/10 04:48:18;;;;;;;104.60;62.80;;;;;;;-3.10;90.10;98485.14;104837;1271;61217;-73
2022/01/10 04:51:32;;;;;;;104.90;60.10;;;;;;;-3.17;90.17;98490.48;105058;1271;61185;-72
2022/01/10 04:53:33;;;;;;;114.10;63.40;;;;;;;-3.26;90.34;98490.31;104341;1271;1015802;-72
2022/01/10 04:56:00;;;;;;;109.30;63.60;;;;;;;-3.33;90.48;98494.80;105050;1271;69429;-71
2022/01/10 04:58:26;;;;;;;110.60;63.90;;;;;;;-3.39;90.68;98499.09;105246;1271;61313;-74
2022/01/10 05:00:55;;;;;;;116.10;64.90;;;;;;;-3.47;90.72;98503.58;105278;1271;61674;-71
2022/01/10 05:03:23;;;;;;;116.70;66.20;;;;;;;-3.52;90.91;98515.64;105048;1274;61777;-72
2022/01/10 05:05:53;;;;;;;114.70;64.70;;;;;;;-3.59;91.03;98515.07;105246;1271;76541;-71
2022/01/10 05:08:21;;;;;;;115.90;66.20;;;;;;;-3.65;91.07;98518.13;105246;1271;70414;-70
2022/01/10 05:10:49;;;;;;;111.60;66.00;;;;;;;-3.70;91.18;98524.98;105103;1271;73821;-73
2022/01/10 05:13:16;;;;;;;108.70;62.90;;;;;;;-3.75;91.35;98529.41;104562;1271;1003056;-71
2022/01/10 05:15:46;;;;;;;118.00;67.30;;;;;;;-3.79;91.47;98531.20;105018;1274;61407;-72
2022/01/10 05:18:13;;;;;;;110.80;64.20;;;;;;;-3.82;91.57;98537.86;105413;1271;76380;-71
2022/01/10 05:20:41;;;;;;;107.70;67.30;;;;;;;-3.86;91.71;98543.48;105394;1271;70235;-72
2022/01/10 05:23:07;;;;;;;120.20;66.20;;;;;;;-3.90;91.78;98545.10;105155;1271;73374;-71
2022/01/10 05:25:39;;;;;;;118.40;67.90;;;;;;;-3.94;91.80;98549.15;103751;1271;1003624;-71
2022/01/10 05:28:19;;;;;;;118.50;67.30;;;;;;;-3.98;91.81;98556.52;105607;1271;61189;-71
2022/01/10 05:30:47;;;;;;;123.90;68.00;;;;;;;-4.02;92.06;98564.55;105066;1274;75318;-71
2022/01/10 05:33:14;;;;;;;114.50;64.50;;;;;;;-4.08;92.17;98573.85;104886;1274;69384;-71
2022/01/10 05:35:44;;;;;;;112.90;63.10;;;;;;;-4.11;92.20;98582.04;105210;1271;73375;-71
2022/01/10 05:38:11;;;;;;;116.40;65.70;;;;;;;-4.15;92.36;98584.88;104854;1275;61933;-73
2022/01/10 05:40:40;;;;;;;123.50;69.70;;;;;;;-4.20;92.49;98591.36;105170;1271;61377;-74
2022/01/10 05:43:07;;;;;;;125.80;72.40;;;;;;;-4.24;92.55;98595.92;104896;1271;76452;-72
2022/01/10 05:45:34;;;;;;;125.60;72.10;;;;;;;-4.27;92.60;98599.61;105151;1271;70464;-71
2022/01/10 05:48:08;;;;;;;130.70;73.80;;;;;;;-4.31;92.78;98606.78;105155;1271;74399;-72
2022/01/10 05:50:36;;;;;;;133.10;76.50;;;;;;;-4.35;92.87;98613.60;104790;1271;61312;-72
2022/01/10 05:53:04;;;;;;;124.90;78.60;;;;;;;-4.39;92.99;98613.30;105195;1271;61365;-72
2022/01/10 05:55:30;;;;;;;135.30;78.20;;;;;;;-4.43;93.24;98618.37;105149;1271;76631;-72
2022/01/10 05:57:57;;;;;;;141.60;80.90;;;;;;;-4.47;93.30;98627.09;105185;1271;69628;-71
2022/01/10 06:00:24;;;;;;;138.00;80.30;;;;;;;-4.49;93.36;98629.90;105149;1271;73360;-70
2022/01/10 06:02:51;;;;;;;136.00;77.90;;;;;;;-4.52;93.44;98629.23;105140;1271;61279;-72
2022/01/10 06:05:18;;;;;;;122.40;72.20;;;;;;;-4.57;93.56;98632.77;105158;1271;61267;-73
2022/01/10 06:07:45;;;;;;;131.80;78.20;;;;;;;-4.59;93.80;98634.35;105121;1271;75615;-72
2022/01/10 06:10:11;;;;;;;132.70;75.20;;;;;;;-4.61;93.96;98641.66;105128;1271;69595;-71
2022/01/10 06:12:39;;;;;;;135.20;76.60;;;;;;;-4.65;94.14;98644.64;105105;1271;73307;-73
2022/01/10 06:15:05;;;;;;;129.10;76.80;;;;;;;-4.67;94.09;98653.51;105490;1271;61397;-71
2022/01/10 06:17:32;;;;;;;124.20;71.80;;;;;;;-4.68;94.20;98657.51;105133;1271;61275;-72
2022/01/10 06:19:59;;;;;;;129.10;77.50;;;;;;;-4.69;94.31;98665.66;104953;1271;75212;-73
2022/01/10 06:22:26;;;;;;;118.20;72.70;;;;;;;-4.72;94.33;98668.81;105332;1271;68151;-72
2022/01/10 06:24:53;;;;;;;129.30;77.50;;;;;;;-4.72;94.34;98678.00;105495;1271;73379;-72
2022/01/10 06:27:20;;;;;;;116.30;70.80;;;;;;;-4.73;94.55;98678.02;105394;1271;61618;-72
2022/01/10 06:29:46;;;;;;;127.00;73.30;;;;;;;-4.73;94.72;98680.96;105089;1271;61150;-73
2022/01/10 06:32:13;;;;;;;124.90;72.90;;;;;;;-4.73;94.63;98687.02;104623;1274;61304;-72
2022/01/10 06:34:39;;;;;;;135.60;77.10;;;;;;;-4.73;94.51;98688.61;105172;1271;61302;-72
2022/01/10 06:37:06;;;;;;;129.30;76.90;;;;;;;-4.74;94.66;98687.39;105159;1271;61263;-73
2022/01/10 06:39:32;;;;;;;123.50;72.30;;;;;;;-4.74;94.66;98696.39;105131;1271;61402;-70
2022/01/10 06:41:59;;;;;;;127.90;70.60;;;;;;;-4.75;94.78;98708.54;104986;1271;62161;-71
2022/01/10 06:44:26;;;;;;;121.80;73.60;;;;;;;-4.74;94.75;98706.80;105162;1271;75100;-71
2022/01/10 06:46:53;;;;;;;123.50;70.70;;;;;;;-4.75;94.83;98711.65;105101;1271;68517;-72
2022/01/10 06:49:20;;;;;;;129.20;73.20;;;;;;;-4.73;94.87;98721.01;105173;1271;73378;-74
2022/01/10 06:51:47;;;;;;;130.80;75.10;;;;;;;-4.74;94.82;98723.42;105192;1271;61274;-71
2022/01/10 06:54:14;;;;;;;128.60;70.90;;;;;;;-4.72;94.98;98727.23;105174;1271;61250;-75
2022/01/10 06:56:40;;;;;;;119.60;71.30;;;;;;;-4.70;95.05;98733.60;105169;1271;76038;-73
2022/01/10 06:59:08;;;;;;;123.70;73.20;;;;;;;-4.68;95.13;98734.64;105185;1271;68933;-74
2022/01/10 07:01:35;;;;;;;131.20;73.20;;;;;;;-4.67;94.97;98743.45;105026;1271;73103;-71
2022/01/10 07:04:02;;;;;;;126.10;73.30;;;;;;;-4.66;95.12;98748.65;105410;1271;61259;-73
2022/01/10 07:06:29;;;;;;;125.40;75.20;;;;;;;-4.66;95.36;98751.77;105165;1271;61849;-74
2022/01/10 07:08:56;;;;;;;123.40;74.10;;;;;;;-4.67;95.18;98755.41;105234;1271;75552;-72
2022/01/10 07:11:22;;;;;;;132.50;74.00;;;;;;;-4.65;95.26;98761.65;104986;1271;70170;-71
2022/01/10 07:13:50;;;;;;;132.60;71.50;;;;;;;-4.63;95.29;98766.31;105038;1271;73212;-71
2022/01/10 07:16:16;;;;;;;129.10;77.00;;;;;;;-4.62;95.33;98768.55;105151;1271;61286;-74
2022/01/10 07:18:43;;;;;;;126.80;77.60;;;;;;;-4.59;95.16;98774.07;105155;1271;61342;-72
2022/01/10 07:21:09;;;;;;;130.60;77.40;;;;;;;-4.57;95.23;98774.22;105175;1271;74117;-73
2022/01/10 07:23:36;;;;;;;130.90;73.80;;;;;;;-4.52;95.19;98780.95;105091;1271;61428;-72
2022/01/10 07:26:03;;;;;;;128.40;76.10;;;;;;;-4.49;95.14;98786.45;105117;1271;72239;-72
2022/01/10 07:28:29;;;;;;;123.40;70.40;;;;;;;-4.47;95.16;98793.36;105166;1271;61285;-70
2022/01/10 07:30:57;;;;;;;128.30;75.10;;;;;;;-4.44;95.22;98796.80;105027;1271;61266;-72
2022/01/10 07:33:23;;;;;;;114.70;66.90;;;;;;;-4.40;95.12;98806.66;105146;1271;75203;-71
2022/01/10 07:35:50;;;;;;;118.80;67.90;;;;;;;-4.37;95.15;98812.52;105166;1271;69158;-72
2022/01/10 07:38:16;;;;;;;121.50;70.70;;;;;;;-4.34;95.07;98811.45;105147;1271;61396;-72
2022/01/10 07:40:43;;;;;;;118.70;67.90;;;;;;;-4.29;95.05;98817.98;105142;1271;61292;-70
2022/01/10 07:43:10;;;;;;;111.40;65.40;;;;;;;-4.26;95.02;98831.81;104527;1271;61384;-71
2022/01/10 07:45:36;;;;;;;115.00;68.50;;;;;;;-4.23;94.90;98836.14;104604;1272;76175;-71
2022/01/10 07:48:04;;;;;;;119.70;70.30;;;;;;;-4.20;94.98;98843.73;104741;1271;70389;-71
2022/01/10 07:50:31;;;;;;;118.10;70.10;;;;;;;-4.18;94.96;98852.75;105255;1271;73297;-75
2022/01/10 07:52:57;;;;;;;116.30;68.60;;;;;;;-4.16;94.99;98853.59;104890;1271;61360;-71
2022/01/10 07:55:25;;;;;;;115.40;67.80;;;;;;;-4.13;94.90;98856.16;105209;1271;61257;-73
2022/01/10 07:57:52;;;;;;;122.60;73.40;;;;;;;-4.11;94.84;98859.63;105216;1271;75593;-73
2022/01/10 08:00:19;;;;;;;115.60;68.10;;;;;;;-4.08;94.74;98858.37;105175;1271;69397;-73
2022/01/10 08:02:46;;;;;;;119.60;66.20;;;;;;;-4.06;94.72;98860.58;104951;1271;73100;-75
2022/01/10 08:05:12;;;;;;;112.60;64.40;;;;;;;-4.04;94.68;98868.39;105153;1271;61354;-71
2022/01/10 08:07:39;;;;;;;105.90;61.70;;;;;;;-4.03;94.79;98870.11;104373;1271;1005619;-71
2022/01/10 08:10:07;;;;;;;102.80;61.00;;;;;;;-4.01;94.65;98887.09;105054;1271;75209;-72
2022/01/10 08:12:34;;;;;;;100.80;59.80;;;;;;;-4.01;94.65;98883.45;104919;1271;70436;-72
2022/01/10 08:15:00;;;;;;;110.30;65.20;;;;;;;-4.03;94.68;98884.68;105165;1271;73141;-72
2022/01/10 08:17:27;;;;;;;104.60;62.80;;;;;;;-4.01;94.63;98887.61;105143;1271;61319;-71
2022/01/10 08:19:53;;;;;;;112.60;64.50;;;;;;;-3.97;94.66;98889.65;104911;1271;63157;-71
2022/01/10 08:22:20;;;;;;;106.60;62.50;;;;;;;-3.94;94.55;98898.82;105133;1271;76145;-71
2022/01/10 08:24:47;;;;;;;105.60;63.90;;;;;;;-3.89;94.52;98905.20;105178;1271;70527;-71
2022/01/10 08:27:14;;;;;;;101.80;63.30;;;;;;;-3.86;94.55;98910.54;105207;1271;73122;-71
2022/01/10 08:29:41;;;;;;;101.60;60.70;;;;;;;-3.82;94.35;98917.27;104843;1271;61272;-72
2022/01/10 08:32:08;;;;;;;99.60;57.60;;;;;;;-3.76;94.42;98919.81;105280;1271;61240;-71
2022/01/10 08:34:35;;;;;;;96.90;57.60;;;;;;;-3.71;94.36;98918.55;105152;1271;74586;-72
2022/01/10 08:37:02;;;;;;;101.50;59.70;;;;;;;-3.66;94.26;98922.83;105192;1271;69617;-73
2022/01/10 08:39:29;;;;;;;99.20;59.90;;;;;;;-3.60;94.11;98929.02;105137;1271;74389;-72
2022/01/10 08:41:55;;;;;;;102.60;61.60;;;;;;;-3.53;94.14;98925.64;105164;1271;61188;-71
2022/01/10 08:44:22;;;;;;;104.50;64.50;;;;;;;-3.44;94.19;98926.75;105184;1271;61301;-72
2022/01/10 08:46:49;;;;;;;94.90;56.80;;;;;;;-3.34;94.03;98939.83;105318;1271;75008;-70
2022/01/10 08:49:15;;;;;;;101.20;61.90;;;;;;;-3.28;93.68;98940.11;104976;1271;69144;-72
2022/01/10 08:51:43;;;;;;;103.60;63.30;;;;;;;-3.22;93.75;98949.23;105080;1271;73356;-72
2022/01/10 08:54:10;;;;;;;93.70;60.20;;;;;;;-3.15;93.67;98956.80;104815;1271;61407;-71
2022/01/10 08:56:37;;;;;;;92.80;58.20;;;;;;;-3.04;93.59;98965.17;104805;1271;61218;-70
2022/01/10 08:59:04;;;;;;;100.00;61.30;;;;;;;-2.97;93.38;98965.79;104571;1271;73704;-71
2022/01/10 09:01:32;;;;;;;97.70;60.00;;;;;;;-2.90;93.42;98964.66;105500;1271;70010;-71
2022/01/10 09:03:59;;;;;;;96.20;56.10;;;;;;;-2.82;93.26;98969.60;105213;1271;73114;-71
2022/01/10 09:06:26;;;;;;;88.20;53.70;;;;;;;-2.84;92.54;98974.47;105155;1271;61401;-72
2022/01/10 09:08:53;;;;;;;89.50;54.30;;;;;;;-2.91;92.53;98986.55;104929;1271;61166;-73
2022/01/10 09:11:20;;;;;;;83.60;54.00;;;;;;;-2.90;92.50;98994.89;105185;1271;74468;-73
2022/01/10 09:13:46;;;;;;;83.10;51.50;;;;;;;-2.90;92.31;98994.20;105195;1271;70280;-72
2022/01/10 09:16:14;;;;;;;79.90;48.90;;;;;;;-2.91;92.18;98993.00;105212;1271;61296;-71
2022/01/10 09:18:41;;;;;;;87.30;51.80;;;;;;;-2.93;91.76;98996.31;105009;1271;61288;-71
2022/01/10 09:21:08;;;;;;;80.20;49.30;;;;;;;-2.95;91.90;98994.61;104913;1271;61724;-72
2022/01/10 09:23:34;;;;;;;83.60;50.60;;;;;;;-2.90;92.13;98996.98;105195;1271;75130;-71
2022/01/10 09:26:01;;;;;;;80.40;49.90;;;;;;;-2.82;92.15;98994.45;104680;1274;69155;-72
2022/01/10 09:28:27;;;;;;;78.40;48.50;;;;;;;-2.72;91.96;98989.61;105106;1271;61294;-77
2022/01/10 09:30:54;;;;;;;79.90;50.10;;;;;;;-2.66;91.72;98994.23;105188;1271;61285;-71
2022/01/10 09:33:21;;;;;;;90.90;52.70;;;;;;;-2.65;91.63;98994.21;105230;1271;61758;-73
2022/01/10 09:35:47;;;;;;;91.10;56.80;;;;;;;-2.59;91.69;98993.62;105242;1271;75490;-72
2022/01/10 09:38:14;;;;;;;82.80;51.90;;;;;;;-2.53;91.60;98995.27;105234;1271;70417;-72
2022/01/10 09:40:40;;;;;;;80.40;51.50;;;;;;;-2.51;91.38;98997.84;105185;1271;74278;-70
2022/01/10 09:43:07;;;;;;;81.70;53.30;;;;;;;-2.50;91.41;99001.31;105190;1271;61294;-71
2022/01/10 09:45:34;;;;;;;82.70;49.70;;;;;;;-2.45;91.48;99004.71;104932;1271;61573;-69
2022/01/10 09:48:01;;;;;;;87.40;53.70;;;;;;;-2.37;91.46;99011.58;104836;1271;76381;-72
2022/01/10 09:50:28;;;;;;;77.70;52.20;;;;;;;-2.31;91.35;99016.69;105067;1271;70136;-72
2022/01/10 09:52:55;;;;;;;79.90;51.40;;;;;;;-2.27;91.25;99020.29;104851;1271;73329;-70
2022/01/10 09:55:21;;;;;;;82.90;50.60;;;;;;;-2.22;91.16;99021.97;104943;1271;61314;-73
2022/01/10 09:57:48;;;;;;;77.80;49.70;;;;;;;-2.17;91.18;99016.66;105221;1271;61314;-72
2022/01/10 10:00:16;;;;;;;79.80;52.20;;;;;;;-2.09;91.22;99022.45;105065;1271;76195;-70
2022/01/10 10:02:42;;;;;;;82.10;52.50;;;;;;;-2.00;91.13;99022.32;103002;1271;1003811;-71
2022/01/10 10:05:12;;;;;;;65.00;40.90;;;;;;;-1.93;90.97;99023.77;105201;1271;74495;-71
2022/01/10 10:07:40;;;;;;;54.50;36.40;;;;;;;-1.89;90.43;99031.71;104956;1271;61378;-71
2022/01/10 10:10:11;;;;;;;52.70;34.00;;;;;;;-1.89;90.31;99035.20;104622;1271;61794;-72
2022/01/10 10:12:41;;;;;;;56.30;34.50;;;;;;;-1.88;90.08;99040.23;105089;1271;76342;-74
2022/01/10 10:15:11;;;;;;;49.50;30.30;;;;;;;-1.86;90.20;99046.48;105234;1271;70597;-71
2022/01/10 10:17:39;;;;;;;47.00;30.70;;;;;;;-1.82;90.02;99044.15;105055;1271;72699;-72
2022/01/10 10:20:11;;;;;;;44.40;28.50;;;;;;;-1.81;89.93;99055.60;105183;1271;61331;-72
2022/01/10 10:22:43;;;;;;;46.50;28.30;;;;;;;-1.76;90.14;99057.98;105107;1271;61272;-72
2022/01/10 10:25:12;;;;;;;42.30;26.70;;;;;;;-1.72;90.11;99059.48;105286;1271;75396;-72
2022/01/10 10:27:42;;;;;;;35.20;23.90;;;;;;;-1.70;90.22;99070.94;105146;1271;69528;-73
2022/01/10 10:30:27;;;;;;;34.50;22.60;;;;;;;-1.71;90.29;99076.55;105074;1271;74695;-71
2022/01/10 10:33:18;;;;;;;35.90;23.70;;;;;;;-1.76;90.38;99077.32;104831;1271;61322;-71
2022/01/10 10:35:58;;;;;;;32.60;22.70;;;;;;;-1.74;90.65;99078.16;104357;1279;61244;-70
2022/01/10 10:38:27;;;;;;;34.20;20.50;;;;;;;-1.70;90.65;99086.44;104276;1279;75640;-72
2022/01/10 10:40:59;;;;;;;28.10;18.40;;;;;;;-1.70;90.49;99091.33;104523;1279;70302;-71
2022/01/10 10:43:33;;;;;;;28.60;19.30;;;;;;;-1.77;90.48;99093.34;104492;1279;74297;-70
2022/01/10 10:46:12;;;;;;;27.60;18.10;;;;;;;-1.78;90.76;99095.27;104050;1280;61392;-73
2022/01/10 10:48:40;;;;;;;;;;;;;;;-1.74;90.68;99093.13;104506;1278;61303;-71
2022/01/10 10:51:07;;;;;;;30.80;21.10;;;;;;;-1.70;90.70;99095.33;104370;1279;75219;-71
2022/01/10 10:53:33;;;;;;;28.80;19.00;;;;;;;-1.64;90.74;99096.11;104458;1279;70430;-70
2022/01/10 10:56:03;;;;;;;27.80;18.20;;;;;;;-1.60;90.89;99099.17;104438;1279;74315;-71
2022/01/10 10:58:31;;;;;;;35.60;23.20;;;;;;;-1.49;90.94;99100.39;104514;1279;61299;-70
2022/01/10 11:00:59;;;;;;;26.90;16.60;;;;;;;-1.41;90.82;99103.73;104341;1279;62061;-72
2022/01/10 11:03:26;;;;;;;24.70;17.60;;;;;;;-1.36;90.65;99103.83;104434;1279;76274;-71
2022/01/10 11:05:57;;;;;;;26.20;16.00;;;;;;;-1.31;90.58;99113.86;104229;1279;69494;-73
2022/01/10 11:08:27;;;;;;;20.10;14.20;;;;;;;-1.28;90.72;99116.23;104386;1279;73266;-73
2022/01/10 11:10:54;;;;;;;24.80;15.00;;;;;;;-1.24;90.61;99118.61;104598;1277;61434;-73
2022/01/10 11:13:23;;;;;;;19.20;14.00;;;;;;;-1.16;90.71;99114.13;104768;1271;61291;-72
2022/01/10 11:15:51;;;;;;;22.50;14.30;;;;;;;-1.11;90.50;99117.87;105006;1271;74789;-71
2022/01/10 11:18:20;;;;;;;20.70;14.20;;;;;;;-1.11;90.60;99120.83;105130;1273;70420;-71
2022/01/10 11:20:50;;;;;;;19.30;13.60;;;;;;;-1.08;90.64;99121.30;105076;1271;74412;-70